sensor_id;sensor_type;location;lat;lon;timestamp;temperature;humidity
23305;DHT22;11821;51.456;8.844;2023-08-06T09:12:57;19.90;99.90
23305;DHT22;11821;51.456;8.844;2023-08-06T12:29:25;20.80;99.90
23305;DHT22;11821;51.456;8.844;2023-08-06T12:31:52;23.20;99.90
23305;DHT22;11821;51.456;8.844;2023-08-06T12:46:31;23.00;99.90
23305;DHT22;11821;51.456;8.844;2023-08-06T12:48:57;23.20;99.90
23305;DHT22;11821;51.456;8.844;2023-08-06T12:51:25;23.20;99.90
23305;DHT22;11821;51.456;8.844;2023-08-06T12:53:51;23.30;99.90
23305;DHT22;11821;51.456;8.844;2023-08-06T12:56:17;23.40;99.90
23305;DHT22;11821;51.456;8.844;2023-08-06T12:58:43;23.40;99.90
23305;DHT22;11821;51.456;8.844;2023-08-06T13:01:10;23.40;99.90
23305;DHT22;11821;51.456;8.844;2023-08-06T13:03:36;23.40;99.90
23305;DHT22;11821;51.456;8.844;2023-08-06T13:06:03;23.40;99.90
23305;DHT22;11821;51.456;8.844;2023-08-06T13:08:29;23.30;99.90
23305;DHT22;11821;51.456;8.844;2023-08-06T13:10:55;23.30;99.90
23305;DHT22;11821;51.456;8.844;2023-08-06T13:13:24;23.40;99.90
23305;DHT22;11821;51.456;8.844;2023-08-06T13:15:52;23.30;99.90
23305;DHT22;11821;51.456;8.844;2023-08-06T13:18:19;23.30;99.90
23305;DHT22;11821;51.456;8.844;2023-08-06T13:20:45;23.30;99.90
23305;DHT22;11821;51.456;8.844;2023-08-06T13:23:13;23.30;99.90
23305;DHT22;11821;51.456;8.844;2023-08-06T13:25:41;23.20;99.90
23305;DHT22;11821;51.456;8.844;2023-08-06T13:28:08;23.10;99.90
23305;DHT22;11821;51.456;8.844;2023-08-06T13:30:35;23.20;99.90
23305;DHT22;11821;51.456;8.844;2023-08-06T13:33:08;23.00;99.90
23305;DHT22;11821;51.456;8.844;2023-08-06T13:35:35;23.00;99.90
23305;DHT22;11821;51.456;8.844;2023-08-06T13:38:01;22.80;99.90
23305;DHT22;11821;51.456;8.844;2023-08-06T13:42:59;22.70;99.90
23305;DHT22;11821;51.456;8.844;2023-08-06T13:45:25;22.60;99.90
23305;DHT22;11821;51.456;8.844;2023-08-06T13:47:52;22.50;99.90
23305;DHT22;11821;51.456;8.844;2023-08-06T13:50:18;22.50;99.90
23305;DHT22;11821;51.456;8.844;2023-08-06T13:52:45;22.60;99.90
23305;DHT22;11821;51.456;8.844;2023-08-06T13:55:12;22.70;99.90
23305;DHT22;11821;51.456;8.844;2023-08-06T13:57:38;22.80;99.90
23305;DHT22;11821;51.456;8.844;2023-08-06T14:00:05;22.90;99.90
23305;DHT22;11821;51.456;8.844;2023-08-06T14:02:38;22.90;99.90
23305;DHT22;11821;51.456;8.844;2023-08-06T14:05:05;22.90;99.90
23305;DHT22;11821;51.456;8.844;2023-08-06T14:07:31;23.00;99.90
23305;DHT22;11821;51.456;8.844;2023-08-06T14:09:58;23.00;99.90
23305;DHT22;11821;51.456;8.844;2023-08-06T14:12:24;22.90;99.90
23305;DHT22;11821;51.456;8.844;2023-08-06T14:14:50;22.90;99.90
23305;DHT22;11821;51.456;8.844;2023-08-06T14:17:17;22.80;99.90
23305;DHT22;11821;51.456;8.844;2023-08-06T14:19:43;22.70;99.90
23305;DHT22;11821;51.456;8.844;2023-08-06T14:22:09;22.60;99.90
23305;DHT22;11821;51.456;8.844;2023-08-06T14:27:02;22.80;99.90
23305;DHT22;11821;51.456;8.844;2023-08-06T14:31:56;22.80;99.90
23305;DHT22;11821;51.456;8.844;2023-08-06T14:34:23;22.60;99.90
23305;DHT22;11821;51.456;8.844;2023-08-06T14:36:49;22.60;99.90
23305;DHT22;11821;51.456;8.844;2023-08-06T14:39:16;22.40;99.90
23305;DHT22;11821;51.456;8.844;2023-08-06T14:41:42;22.40;99.90
23305;DHT22;11821;51.456;8.844;2023-08-06T14:44:08;22.30;99.90
23305;DHT22;11821;51.456;8.844;2023-08-06T14:46:35;22.30;99.90
